createdAt,value
2022-12-17T00:02:41.635Z,101103.66
2022-12-17T00:05:27.220Z,101110.41
2022-12-17T00:11:35.371Z,101105.06
2022-12-17T00:14:20.577Z,101109.66
2022-12-17T00:17:05.748Z,101110.78
2022-12-17T00:19:51.095Z,101109.19
2022-12-17T00:22:53.521Z,101106.59
2022-12-17T00:25:42.658Z,101114.81
2022-12-17T00:28:31.006Z,101113.34
2022-12-17T00:31:16.172Z,101116.16
2022-12-17T00:34:04.932Z,101122.50
2022-12-17T00:36:50.026Z,101126.00
2022-12-17T00:39:35.825Z,101126.25
2022-12-17T00:42:20.766Z,101132.56
2022-12-17T00:45:05.822Z,101129.06
2022-12-17T00:47:50.677Z,101131.94
2022-12-17T00:50:36.163Z,101132.00
2022-12-17T00:53:21.021Z,101134.00
2022-12-17T00:56:05.848Z,101129.75
2022-12-17T00:58:50.755Z,101134.28
2022-12-17T01:01:37.668Z,101135.38
2022-12-17T01:04:23.184Z,101144.13
2022-12-17T01:07:08.824Z,101147.97
2022-12-17T01:09:57.351Z,101149.81
2022-12-17T01:12:42.096Z,101170.28
2022-12-17T01:15:29.874Z,101177.34
2022-12-17T01:18:14.791Z,101183.66
2022-12-17T01:20:59.611Z,101173.31
2022-12-17T01:23:44.777Z,101173.34
2022-12-17T01:26:30.115Z,101179.00
2022-12-17T01:29:18.843Z,101171.19
2022-12-17T01:32:03.714Z,101180.94
2022-12-17T01:34:50.533Z,101187.28
2022-12-17T01:37:35.369Z,101197.13
2022-12-17T01:40:20.097Z,101199.00
2022-12-17T01:43:05.573Z,101202.56
2022-12-17T01:45:58.053Z,101207.34
2022-12-17T01:48:50.795Z,101212.66
2022-12-17T01:51:37.099Z,101215.44
2022-12-17T01:54:23.254Z,101209.34
2022-12-17T01:57:09.171Z,101208.59
2022-12-17T02:00:15.969Z,101214.03
2022-12-17T02:03:02.148Z,101215.78
2022-12-17T02:05:56.273Z,101224.69
2022-12-17T02:08:55.981Z,101228.34
2022-12-17T02:12:02.725Z,101214.28
2022-12-17T02:15:20.992Z,101224.09
2022-12-17T02:18:14.184Z,101233.91
2022-12-17T02:21:13.000Z,101235.53
2022-12-17T02:24:07.118Z,101235.69
2022-12-17T02:27:02.197Z,101241.94
2022-12-17T02:29:52.523Z,101242.84
2022-12-17T02:32:39.105Z,101238.63
2022-12-17T02:35:52.042Z,101234.31
2022-12-17T02:38:50.309Z,101240.53
2022-12-17T02:41:41.157Z,101245.88
2022-12-17T02:44:30.266Z,101234.47
2022-12-17T02:47:18.149Z,101231.78
2022-12-17T02:50:03.884Z,101230.09
2022-12-17T02:52:52.128Z,101239.75
2022-12-17T02:55:37.068Z,101249.50
2022-12-17T02:58:27.253Z,101255.59
2022-12-17T03:01:12.252Z,101259.13
2022-12-17T03:03:59.143Z,101269.81
2022-12-17T03:06:44.320Z,101268.13
2022-12-17T03:09:28.965Z,101271.00
2022-12-17T03:12:14.006Z,101268.44
2022-12-17T03:14:58.876Z,101278.31
2022-12-17T03:17:49.649Z,101274.94
2022-12-17T03:20:34.966Z,101278.50
2022-12-17T03:23:25.626Z,101291.81
2022-12-17T03:26:10.886Z,101285.81
2022-12-17T03:28:56.352Z,101278.81
2022-12-17T03:31:41.787Z,101279.78
2022-12-17T03:34:27.115Z,101286.88
2022-12-17T03:37:11.954Z,101284.16
2022-12-17T03:39:56.951Z,101281.53
2022-12-17T03:42:42.357Z,101288.69
2022-12-17T03:45:27.993Z,101284.41
2022-12-17T03:48:32.503Z,101290.66
2022-12-17T03:51:18.735Z,101290.47
2022-12-17T03:54:04.936Z,101299.34
2022-12-17T03:56:51.261Z,101303.56
2022-12-17T03:59:38.783Z,101297.47
2022-12-17T04:02:24.937Z,101301.09
2022-12-17T04:05:20.747Z,101304.75
2022-12-17T04:08:06.631Z,101309.78
2022-12-17T04:10:51.720Z,101311.38
2022-12-17T04:13:40.745Z,101307.63
2022-12-17T04:16:26.624Z,101312.34
2022-12-17T04:19:11.726Z,101325.69
2022-12-17T04:21:56.808Z,101327.50
2022-12-17T04:24:44.114Z,101324.91
2022-12-17T04:27:29.265Z,101328.41
2022-12-17T04:30:14.014Z,101336.13
2022-12-17T04:32:58.879Z,101328.00
2022-12-17T04:35:43.797Z,101329.44
2022-12-17T04:38:31.364Z,101331.38
2022-12-17T04:41:18.985Z,101331.19
2022-12-17T04:44:03.810Z,101340.56
2022-12-17T04:46:49.764Z,101344.13
2022-12-17T04:49:35.122Z,101344.69
2022-12-17T04:52:19.872Z,101340.28
2022-12-17T04:55:05.043Z,101347.16
2022-12-17T04:57:50.187Z,101348.34
2022-12-17T05:00:37.572Z,101345.75
2022-12-17T05:03:30.507Z,101344.00
2022-12-17T05:06:15.643Z,101339.47
2022-12-17T05:09:03.428Z,101347.16
2022-12-17T05:11:48.503Z,101350.13
2022-12-17T05:14:34.511Z,101345.75
2022-12-17T05:17:19.866Z,101353.75
2022-12-17T05:20:05.992Z,101372.03
2022-12-17T05:22:54.202Z,101372.94
2022-12-17T05:25:39.071Z,101368.22
2022-12-17T05:28:24.051Z,101368.31
2022-12-17T05:31:13.482Z,101366.47
2022-12-17T05:34:01.616Z,101377.69
2022-12-17T05:36:47.114Z,101380.97
2022-12-17T05:39:32.272Z,101382.56
2022-12-17T05:42:17.575Z,101387.72
2022-12-17T05:45:02.713Z,101398.41
2022-12-17T05:47:47.689Z,101396.50
2022-12-17T05:50:32.749Z,101398.97
2022-12-17T05:53:24.806Z,101398.63
2022-12-17T05:56:12.583Z,101409.31
2022-12-17T05:58:58.619Z,101416.56
2022-12-17T06:01:43.713Z,101415.72
2022-12-17T06:04:33.741Z,101412.38
2022-12-17T06:07:18.739Z,101410.75
2022-12-17T06:10:04.196Z,101413.63
2022-12-17T06:12:49.083Z,101433.09
2022-12-17T06:15:34.092Z,101434.88
2022-12-17T06:18:18.885Z,101434.16
2022-12-17T06:21:04.642Z,101446.38
2022-12-17T06:23:50.239Z,101447.06
2022-12-17T06:26:35.244Z,101447.97
2022-12-17T06:29:20.118Z,101453.03
2022-12-17T06:32:05.128Z,101456.22
2022-12-17T06:34:50.006Z,101453.81
2022-12-17T06:37:35.029Z,101458.03
2022-12-17T06:40:20.010Z,101464.25
2022-12-17T06:43:15.215Z,101467.72
2022-12-17T06:46:02.156Z,101470.63
2022-12-17T06:48:47.079Z,101469.88
2022-12-17T06:51:34.660Z,101485.84
2022-12-17T06:54:19.881Z,101483.91
2022-12-17T06:57:04.908Z,101485.56
2022-12-17T06:59:49.749Z,101483.66
2022-12-17T07:02:34.806Z,101483.44
2022-12-17T07:05:20.183Z,101488.53
2022-12-17T07:08:05.066Z,101483.00
2022-12-17T07:10:51.571Z,101495.25
2022-12-17T07:13:37.693Z,101494.09
2022-12-17T07:16:22.772Z,101504.31
2022-12-17T07:19:07.958Z,101514.78
2022-12-17T07:21:53.099Z,101515.44
2022-12-17T07:24:38.050Z,101522.34
2022-12-17T07:27:23.242Z,101528.44
2022-12-17T07:30:07.986Z,101529.06
2022-12-17T07:32:54.402Z,101542.09
2022-12-17T07:35:41.870Z,101535.56
2022-12-17T07:38:38.457Z,101539.25
2022-12-17T07:41:23.479Z,101538.88
2022-12-17T07:44:11.154Z,101550.16
2022-12-17T07:46:56.071Z,101555.75
2022-12-17T07:49:41.584Z,101561.25
2022-12-17T07:52:26.735Z,101566.13
2022-12-17T07:55:15.465Z,101567.50
2022-12-17T07:58:03.005Z,101559.56
2022-12-17T08:00:49.570Z,101557.66
2022-12-17T08:03:35.433Z,101564.69
2022-12-17T08:06:21.043Z,101574.53
2022-12-17T08:09:06.208Z,101575.19
2022-12-17T08:11:51.099Z,101578.72
2022-12-17T08:14:35.918Z,101578.75
2022-12-17T08:17:20.865Z,101581.03
2022-12-17T08:20:05.841Z,101581.81
2022-12-17T08:22:53.066Z,101597.72
2022-12-17T08:25:38.123Z,101603.50
2022-12-17T08:31:28.220Z,101612.97
2022-12-17T08:34:13.117Z,101619.63
2022-12-17T08:36:58.035Z,101617.84
2022-12-17T08:39:42.941Z,101614.09
2022-12-17T08:42:30.441Z,101624.47
2022-12-17T08:45:15.726Z,101624.81
2022-12-17T08:48:04.072Z,101644.91
2022-12-17T08:50:51.722Z,101630.38
2022-12-17T08:53:37.368Z,101633.53
2022-12-17T08:56:22.800Z,101635.31
2022-12-17T08:59:08.110Z,101633.59
2022-12-17T09:01:54.311Z,101630.41
2022-12-17T09:04:53.156Z,101636.53
2022-12-17T09:07:38.465Z,101633.69
2022-12-17T09:10:24.036Z,101643.06
2022-12-17T09:13:10.143Z,101654.16
2022-12-17T09:15:57.649Z,101647.72
2022-12-17T09:18:59.736Z,101647.97
2022-12-17T09:21:47.097Z,101652.19
2022-12-17T09:24:33.155Z,101649.66
2022-12-17T09:27:18.402Z,101657.47
2022-12-17T09:30:04.720Z,101655.31
2022-12-17T09:32:49.516Z,101653.44
2022-12-17T09:35:37.138Z,101662.03
2022-12-17T09:38:25.683Z,101660.34
2022-12-17T09:41:12.802Z,101660.34
2022-12-17T09:44:10.247Z,101658.47
2022-12-17T09:47:40.536Z,101669.59
2022-12-17T09:50:32.292Z,101663.50
2022-12-17T09:53:20.625Z,101668.47
2022-12-17T09:56:08.855Z,101666.66
2022-12-17T09:58:57.703Z,101666.16
2022-12-17T10:01:46.953Z,101667.53
2022-12-17T10:05:00.904Z,101670.50
2022-12-17T10:07:54.390Z,101663.69
2022-12-17T10:10:43.599Z,101662.06
2022-12-17T10:13:40.938Z,101664.16
2022-12-17T10:16:47.193Z,101672.16
2022-12-17T10:19:42.260Z,101670.31
2022-12-17T10:22:38.062Z,101665.44
2022-12-17T10:25:34.208Z,101672.63
2022-12-17T10:28:22.070Z,101674.00
2022-12-17T10:31:07.351Z,101672.19
2022-12-17T10:33:57.554Z,101667.44
2022-12-17T10:36:44.243Z,101668.19
2022-12-17T10:39:40.049Z,101665.72
2022-12-17T10:42:49.687Z,101677.84
2022-12-17T10:45:59.436Z,101681.25
2022-12-17T10:48:46.916Z,101680.09
2022-12-17T10:51:40.341Z,101686.06
2022-12-17T10:54:49.055Z,101689.94
2022-12-17T10:57:52.699Z,101691.94
2022-12-17T11:00:50.223Z,101687.06
2022-12-17T11:03:54.558Z,101692.63
2022-12-17T11:06:45.632Z,101696.34
2022-12-17T11:09:56.419Z,101702.94
2022-12-17T11:12:52.357Z,101697.84
2022-12-17T11:15:40.731Z,101702.00
2022-12-17T11:18:33.707Z,101695.16
2022-12-17T11:21:42.750Z,101692.00
2022-12-17T11:24:43.198Z,101695.00
2022-12-17T11:27:34.882Z,101694.09
2022-12-17T11:30:19.769Z,101693.28
2022-12-17T11:33:14.127Z,101703.84
2022-12-17T11:36:11.400Z,101693.19
2022-12-17T11:39:01.029Z,101700.13
2022-12-17T11:42:18.804Z,101686.53
2022-12-17T11:45:14.444Z,101691.44
2022-12-17T11:48:02.632Z,101697.03
2022-12-17T11:51:06.394Z,101702.81
2022-12-17T11:54:23.888Z,101694.38
2022-12-17T11:57:15.848Z,101685.94
2022-12-17T12:00:13.687Z,101686.06
2022-12-17T12:03:34.435Z,101690.63
2022-12-17T12:06:24.160Z,101688.63
2022-12-17T12:09:47.024Z,101698.28
2022-12-17T12:12:48.936Z,101700.91
2022-12-17T12:16:03.082Z,101698.75
2022-12-17T12:19:11.105Z,101698.28
2022-12-17T12:22:06.609Z,101704.69
2022-12-17T12:25:16.002Z,101703.69
2022-12-17T12:28:13.077Z,101704.34
2022-12-17T12:31:12.154Z,101700.28
2022-12-17T12:34:09.296Z,101695.41
2022-12-17T12:36:56.377Z,101699.16
2022-12-17T12:39:52.937Z,101690.84
2022-12-17T12:42:58.212Z,101685.13
2022-12-17T12:46:35.643Z,101697.81
2022-12-17T12:49:26.563Z,101692.09
2022-12-17T12:52:14.261Z,101691.75
2022-12-17T12:55:13.060Z,101680.81
2022-12-17T12:58:18.397Z,101685.16
2022-12-17T13:01:06.695Z,101688.69
2022-12-17T13:04:04.432Z,101678.31
2022-12-17T13:06:50.837Z,101681.50
2022-12-17T13:09:18.384Z,101682.41
2022-12-17T13:11:48.231Z,101686.03
2022-12-17T13:14:24.178Z,101680.13
2022-12-17T13:16:52.586Z,101671.09
2022-12-17T13:19:31.530Z,101677.97
2022-12-17T13:22:20.041Z,101676.97
2022-12-17T13:24:53.621Z,101667.53
2022-12-17T13:27:35.134Z,101674.94
2022-12-17T13:30:18.261Z,101667.34
2022-12-17T13:33:19.078Z,101670.44
2022-12-17T13:35:59.445Z,101667.50
2022-12-17T13:38:57.313Z,101669.78
2022-12-17T13:41:31.060Z,101678.03
2022-12-17T13:44:02.386Z,101677.44
2022-12-17T13:46:52.455Z,101675.88
2022-12-17T13:49:26.084Z,101667.53
2022-12-17T13:52:18.283Z,101683.38
2022-12-17T13:54:45.425Z,101679.75
2022-12-17T13:57:14.605Z,101678.63
2022-12-17T13:59:48.538Z,101690.13
2022-12-17T14:02:30.659Z,101689.84
2022-12-17T14:05:07.529Z,101692.22
2022-12-17T14:07:38.881Z,101695.06
2022-12-17T14:10:14.768Z,101698.25
2022-12-17T14:12:41.398Z,101696.09
2022-12-17T14:15:22.171Z,101688.34
2022-12-17T14:17:49.977Z,101692.88
2022-12-17T14:20:19.969Z,101693.56
2022-12-17T14:22:51.875Z,101689.19
2022-12-17T14:25:31.531Z,101690.16
2022-12-17T14:28:05.328Z,101698.09
2022-12-17T14:30:50.954Z,101699.16
2022-12-17T14:33:35.912Z,101702.78
2022-12-17T14:36:09.192Z,101708.75
2022-12-17T14:38:40.698Z,101714.13
2022-12-17T14:41:32.974Z,101707.63
2022-12-17T14:44:01.873Z,101708.53
2022-12-17T14:46:30.924Z,101710.63
2022-12-17T14:49:03.521Z,101712.28
2022-12-17T14:51:29.782Z,101713.66
2022-12-17T14:54:31.541Z,101722.94
2022-12-17T14:57:00.125Z,101721.09
2022-12-17T14:59:38.029Z,101720.06
2022-12-17T15:02:24.021Z,101714.50
2022-12-17T15:04:53.146Z,101722.88
2022-12-17T15:07:28.112Z,101721.03
2022-12-17T15:09:55.906Z,101729.28
2022-12-17T15:12:25.637Z,101737.38
2022-12-17T15:14:52.181Z,101733.09
2022-12-17T15:17:21.531Z,101734.91
2022-12-17T15:19:54.176Z,101736.13
2022-12-17T15:22:22.548Z,101741.16
2022-12-17T15:24:49.310Z,101739.38
2022-12-17T15:27:17.054Z,101745.91
2022-12-17T15:29:44.074Z,101747.06
2022-12-17T15:32:18.363Z,101747.16
2022-12-17T15:34:45.021Z,101750.72
2022-12-17T15:37:12.000Z,101755.75
2022-12-17T15:39:38.611Z,101749.56
2022-12-17T15:42:24.098Z,101747.69
2022-12-17T15:44:50.543Z,101742.47
2022-12-17T15:47:16.976Z,101747.69
2022-12-17T15:49:44.833Z,101752.38
2022-12-17T15:52:14.892Z,101748.97
2022-12-17T15:54:42.915Z,101758.91
2022-12-17T15:57:18.248Z,101749.81
2022-12-17T15:59:45.104Z,101759.53
2022-12-17T16:02:11.917Z,101752.59
2022-12-17T16:04:38.787Z,101754.28
2022-12-17T16:07:05.633Z,101752.69
2022-12-17T16:09:32.096Z,101743.09
2022-12-17T16:11:58.521Z,101738.97
2022-12-17T16:14:25.063Z,101744.34
2022-12-17T16:16:52.413Z,101746.53
2022-12-17T16:19:22.537Z,101749.31
2022-12-17T16:21:49.092Z,101757.28
2022-12-17T16:24:17.820Z,101747.16
2022-12-17T16:26:44.591Z,101749.59
2022-12-17T16:29:15.994Z,101757.09
2022-12-17T16:31:42.615Z,101761.38
2022-12-17T16:34:12.897Z,101765.25
2022-12-17T16:36:39.506Z,101759.69
2022-12-17T16:39:14.342Z,101760.63
2022-12-17T16:41:40.790Z,101755.63
2022-12-17T16:44:09.719Z,101767.19
2022-12-17T16:46:39.308Z,101770.78
2022-12-17T16:49:09.240Z,101769.69
2022-12-17T16:51:36.296Z,101767.31
2022-12-17T16:54:09.150Z,101761.72
2022-12-17T16:56:39.929Z,101773.38
2022-12-17T16:59:08.231Z,101774.00
2022-12-17T17:01:41.747Z,101767.00
2022-12-17T17:04:09.791Z,101770.25
2022-12-17T17:07:04.922Z,101777.53
2022-12-17T17:09:31.565Z,101777.41
2022-12-17T17:11:59.033Z,101792.44
2022-12-17T17:14:26.876Z,101791.84
2022-12-17T17:16:53.311Z,101794.16
2022-12-17T17:19:20.598Z,101809.91
2022-12-17T17:21:54.679Z,101792.13
2022-12-17T17:24:24.035Z,101800.63
2022-12-17T17:26:54.067Z,101802.09
2022-12-17T17:29:21.734Z,101804.72
2022-12-17T17:34:41.361Z,101806.34
2022-12-17T17:37:10.225Z,101804.47
2022-12-17T17:39:36.634Z,101801.75
2022-12-17T17:42:03.439Z,101802.75
2022-12-17T17:44:30.088Z,101803.53
2022-12-17T17:46:56.560Z,101803.22
2022-12-17T17:49:23.439Z,101801.66
2022-12-17T17:52:09.025Z,101804.44
2022-12-17T17:54:40.064Z,101812.59
2022-12-17T17:57:06.665Z,101814.63
2022-12-17T17:59:34.298Z,101822.34
2022-12-17T18:02:02.128Z,101822.28
2022-12-17T18:04:29.047Z,101818.59
2022-12-17T18:07:24.214Z,101828.59
2022-12-17T18:09:44.551Z,101827.75
2022-12-17T18:12:29.684Z,101827.69
2022-12-17T18:17:43.556Z,101834.06
2022-12-17T18:20:13.750Z,101843.28
2022-12-17T18:22:40.572Z,101836.22
2022-12-17T18:25:08.274Z,101840.47
2022-12-17T18:27:34.791Z,101842.91
2022-12-17T18:30:01.249Z,101853.03
2022-12-17T18:32:27.740Z,101846.13
2022-12-17T18:34:54.787Z,101844.34
2022-12-17T18:37:21.290Z,101848.44
2022-12-17T18:39:48.739Z,101853.31
2022-12-17T18:42:34.597Z,101850.00
2022-12-17T18:45:03.285Z,101849.03
2022-12-17T18:47:29.906Z,101847.78
2022-12-17T18:49:57.490Z,101835.28
2022-12-17T18:52:24.052Z,101827.94
2022-12-17T18:54:50.506Z,101839.53
2022-12-17T18:57:17.159Z,101837.00
2022-12-17T18:59:43.696Z,101838.84
2022-12-17T19:02:12.291Z,101844.78
2022-12-17T19:04:39.251Z,101839.44
2022-12-17T19:07:05.731Z,101843.97
2022-12-17T19:09:36.116Z,101841.38
2022-12-17T19:12:05.979Z,101842.50
2022-12-17T19:14:35.746Z,101851.34
2022-12-17T19:17:02.798Z,101860.88
2022-12-17T19:19:31.202Z,101855.53
2022-12-17T19:22:00.036Z,101860.94
2022-12-17T19:24:26.725Z,101859.97
2022-12-17T19:26:53.413Z,101867.16
2022-12-17T19:29:20.956Z,101866.16
2022-12-17T19:31:48.169Z,101856.28
2022-12-17T19:34:19.981Z,101862.50
2022-12-17T19:36:49.862Z,101865.44
2022-12-17T19:39:18.991Z,101877.66
2022-12-17T19:41:46.085Z,101865.44
2022-12-17T19:44:15.443Z,101861.84
2022-12-17T19:46:44.791Z,101856.56
2022-12-17T19:49:13.339Z,101864.78
2022-12-17T19:51:42.796Z,101858.59
2022-12-17T19:54:12.142Z,101858.56
2022-12-17T19:56:38.894Z,101861.94
2022-12-17T19:59:08.105Z,101859.31
2022-12-17T20:01:40.436Z,101857.81
2022-12-17T20:04:06.979Z,101855.41
2022-12-17T20:06:34.810Z,101851.88
2022-12-17T20:09:04.260Z,101852.91
2022-12-17T20:11:36.444Z,101853.69
2022-12-17T20:14:10.091Z,101857.06
2022-12-17T20:16:40.408Z,101846.47
2022-12-17T20:19:10.932Z,101862.56
2022-12-17T20:21:37.616Z,101861.84
2022-12-17T20:24:06.528Z,101853.63
2022-12-17T20:26:33.076Z,101860.56
2022-12-17T20:29:00.040Z,101856.16
2022-12-17T20:31:29.009Z,101868.59
2022-12-17T20:34:06.894Z,101866.78
2022-12-17T20:36:34.384Z,101875.94
2022-12-17T20:39:00.894Z,101884.91
2022-12-17T20:41:29.515Z,101866.16
2022-12-17T20:43:56.611Z,101865.19
2022-12-17T20:46:24.967Z,101867.72
2022-12-17T20:48:54.031Z,101872.28
2022-12-17T20:51:23.688Z,101871.50
2022-12-17T20:53:52.378Z,101877.59
2022-12-17T20:56:23.435Z,101869.00
2022-12-17T20:59:02.464Z,101864.63
2022-12-17T21:01:33.682Z,101866.31
2022-12-17T21:04:02.027Z,101868.84
2022-12-17T21:06:41.669Z,101867.84
2022-12-17T21:09:08.679Z,101869.59
2022-12-17T21:11:36.801Z,101877.50
2022-12-17T21:14:16.907Z,101877.56
2022-12-17T21:16:44.418Z,101883.84
2022-12-17T21:19:22.912Z,101886.53
2022-12-17T21:21:49.577Z,101891.81
2022-12-17T21:24:16.121Z,101910.66
2022-12-17T21:26:44.231Z,101917.53
2022-12-17T21:29:11.236Z,101904.38
2022-12-17T21:31:41.307Z,101901.84
2022-12-17T21:34:18.867Z,101886.81
2022-12-17T21:36:45.383Z,101890.53
2022-12-17T21:39:18.058Z,101877.31
2022-12-17T21:42:08.669Z,101893.19
2022-12-17T21:44:35.690Z,101893.09
2022-12-17T21:47:05.023Z,101895.47
2022-12-17T21:49:31.855Z,101887.31
2022-12-17T21:52:00.256Z,101892.00
2022-12-17T21:54:29.288Z,101884.94
2022-12-17T21:56:55.812Z,101891.13
2022-12-17T21:59:23.626Z,101886.13
2022-12-17T22:01:50.812Z,101900.13
2022-12-17T22:04:17.541Z,101900.13
2022-12-17T22:06:50.928Z,101899.97
2022-12-17T22:09:36.085Z,101892.13
2022-12-17T22:12:28.745Z,101891.06
2022-12-17T22:14:55.158Z,101892.88
2022-12-17T22:17:25.315Z,101891.81
2022-12-17T22:19:51.730Z,101895.50
2022-12-17T22:22:18.165Z,101887.47
2022-12-17T22:24:44.587Z,101894.56
2022-12-17T22:27:14.155Z,101899.78
2022-12-17T22:29:59.603Z,101898.00
2022-12-17T22:32:44.802Z,101894.47
2022-12-17T22:37:06.413Z,101898.94
2022-12-17T22:42:18.635Z,101906.84
2022-12-17T22:44:02.728Z,101909.47
2022-12-17T22:44:42.605Z,101905.91
2022-12-17T22:46:21.963Z,101907.91
2022-12-17T22:48:50.834Z,101910.38
2022-12-17T22:51:26.586Z,101917.91
2022-12-17T22:54:09.284Z,101925.69
2022-12-17T22:57:03.100Z,101927.44
2022-12-17T22:59:24.503Z,101919.41
2022-12-17T23:01:51.077Z,101920.25
2022-12-17T23:04:17.813Z,101921.25
2022-12-17T23:06:46.954Z,101922.22
2022-12-17T23:09:19.236Z,101906.31
2022-12-17T23:11:47.383Z,101911.63
2022-12-17T23:14:14.406Z,101924.81
2022-12-17T23:16:41.064Z,101915.88
2022-12-17T23:19:14.929Z,101907.91
2022-12-17T23:21:41.403Z,101896.31
2022-12-17T23:24:09.385Z,101897.16
2022-12-17T23:26:37.285Z,101900.72
2022-12-17T23:29:08.871Z,101898.75
2022-12-17T23:31:38.021Z,101904.06
2022-12-17T23:34:05.372Z,101898.81
2022-12-17T23:36:32.180Z,101905.72
2022-12-17T23:38:59.104Z,101897.75
2022-12-17T23:41:31.198Z,101897.09
2022-12-17T23:43:58.443Z,101904.09
2022-12-17T23:46:27.073Z,101905.81
2022-12-17T23:48:53.925Z,101905.06
2022-12-17T23:51:22.227Z,101908.63
2022-12-17T23:53:48.994Z,101901.53
2022-12-17T23:56:18.987Z,101902.63
2022-12-17T23:58:46.648Z,101913.13
